sensor_id;sensor_type;location;lat;lon;timestamp;P1;durP1;ratioP1;P2;durP2;ratioP2
48849;SDS011;63210;53.370;6.770;2023-09-18T00:01:03;30.73;;;25.73;;
48849;SDS011;63210;53.370;6.770;2023-09-18T00:03:28;26.10;;;22.83;;
48849;SDS011;63210;53.370;6.770;2023-09-18T00:05:53;35.83;;;28.33;;
48849;SDS011;63210;53.370;6.770;2023-09-18T00:08:19;32.42;;;27.50;;
48849;SDS011;63210;53.370;6.770;2023-09-18T00:10:52;42.35;;;30.65;;
48849;SDS011;63210;53.370;6.770;2023-09-18T00:13:17;33.75;;;28.13;;
48849;SDS011;63210;53.370;6.770;2023-09-18T00:15:42;37.20;;;29.93;;
48849;SDS011;63210;53.370;6.770;2023-09-18T00:18:09;33.53;;;29.23;;
48849;SDS011;63210;53.370;6.770;2023-09-18T00:20:35;46.08;;;34.53;;
48849;SDS011;63210;53.370;6.770;2023-09-18T00:23:00;41.13;;;31.93;;
48849;SDS011;63210;53.370;6.770;2023-09-18T00:25:25;37.93;;;32.70;;
48849;SDS011;63210;53.370;6.770;2023-09-18T00:27:50;43.97;;;35.17;;
48849;SDS011;63210;53.370;6.770;2023-09-18T00:30:17;43.30;;;36.22;;
48849;SDS011;63210;53.370;6.770;2023-09-18T00:32:42;46.42;;;36.80;;
48849;SDS011;63210;53.370;6.770;2023-09-18T00:35:07;45.42;;;36.78;;
48849;SDS011;63210;53.370;6.770;2023-09-18T00:37:33;44.87;;;36.47;;
48849;SDS011;63210;53.370;6.770;2023-09-18T00:39:58;46.43;;;38.10;;
48849;SDS011;63210;53.370;6.770;2023-09-18T00:42:24;46.80;;;38.33;;
48849;SDS011;63210;53.370;6.770;2023-09-18T00:44:49;63.78;;;41.35;;
48849;SDS011;63210;53.370;6.770;2023-09-18T00:47:15;45.55;;;36.42;;
48849;SDS011;63210;53.370;6.770;2023-09-18T00:49:41;46.42;;;36.75;;
48849;SDS011;63210;53.370;6.770;2023-09-18T00:52:08;54.92;;;36.15;;
48849;SDS011;63210;53.370;6.770;2023-09-18T00:54:34;48.58;;;37.20;;
48849;SDS011;63210;53.370;6.770;2023-09-18T00:57:00;40.55;;;34.35;;
48849;SDS011;63210;53.370;6.770;2023-09-18T00:59:25;46.80;;;35.92;;
48849;SDS011;63210;53.370;6.770;2023-09-18T01:01:50;45.00;;;35.50;;
48849;SDS011;63210;53.370;6.770;2023-09-18T01:04:16;57.03;;;38.63;;
48849;SDS011;63210;53.370;6.770;2023-09-18T01:06:42;53.70;;;38.40;;
48849;SDS011;63210;53.370;6.770;2023-09-18T01:09:07;43.20;;;35.35;;
48849;SDS011;63210;53.370;6.770;2023-09-18T01:16:39;56.22;;;42.42;;
48849;SDS011;63210;53.370;6.770;2023-09-18T01:19:09;70.32;;;48.15;;
48849;SDS011;63210;53.370;6.770;2023-09-18T01:21:34;64.75;;;47.53;;
48849;SDS011;63210;53.370;6.770;2023-09-18T01:23:59;84.77;;;53.00;;
48849;SDS011;63210;53.370;6.770;2023-09-18T01:26:25;71.53;;;51.17;;
48849;SDS011;63210;53.370;6.770;2023-09-18T01:28:50;83.28;;;53.45;;
48849;SDS011;63210;53.370;6.770;2023-09-18T01:31:15;86.87;;;54.53;;
48849;SDS011;63210;53.370;6.770;2023-09-18T01:33:42;83.82;;;54.97;;
48849;SDS011;63210;53.370;6.770;2023-09-18T01:36:09;89.97;;;56.72;;
48849;SDS011;63210;53.370;6.770;2023-09-18T01:38:35;85.25;;;56.60;;
48849;SDS011;63210;53.370;6.770;2023-09-18T01:41:01;84.72;;;53.65;;
48849;SDS011;63210;53.370;6.770;2023-09-18T01:43:27;75.03;;;54.75;;
48849;SDS011;63210;53.370;6.770;2023-09-18T01:45:52;74.25;;;51.53;;
48849;SDS011;63210;53.370;6.770;2023-09-18T01:48:18;63.13;;;47.20;;
48849;SDS011;63210;53.370;6.770;2023-09-18T01:50:43;54.72;;;44.67;;
48849;SDS011;63210;53.370;6.770;2023-09-18T01:53:08;78.32;;;50.25;;
48849;SDS011;63210;53.370;6.770;2023-09-18T01:55:34;64.82;;;46.95;;
48849;SDS011;63210;53.370;6.770;2023-09-18T01:57:59;63.87;;;48.17;;
48849;SDS011;63210;53.370;6.770;2023-09-18T02:00:24;69.47;;;47.33;;
48849;SDS011;63210;53.370;6.770;2023-09-18T02:02:50;62.65;;;44.70;;
48849;SDS011;63210;53.370;6.770;2023-09-18T02:05:15;52.80;;;42.00;;
48849;SDS011;63210;53.370;6.770;2023-09-18T02:07:40;50.30;;;40.47;;
48849;SDS011;63210;53.370;6.770;2023-09-18T02:10:06;56.10;;;41.50;;
48849;SDS011;63210;53.370;6.770;2023-09-18T02:12:31;67.70;;;45.08;;
48849;SDS011;63210;53.370;6.770;2023-09-18T02:14:57;66.85;;;45.72;;
48849;SDS011;63210;53.370;6.770;2023-09-18T02:17:23;50.03;;;40.25;;
48849;SDS011;63210;53.370;6.770;2023-09-18T02:19:48;49.63;;;40.15;;
48849;SDS011;63210;53.370;6.770;2023-09-18T02:22:14;49.03;;;40.37;;
48849;SDS011;63210;53.370;6.770;2023-09-18T02:24:39;60.00;;;42.72;;
48849;SDS011;63210;53.370;6.770;2023-09-18T02:27:04;45.90;;;37.57;;
48849;SDS011;63210;53.370;6.770;2023-09-18T02:29:30;41.70;;;35.42;;
48849;SDS011;63210;53.370;6.770;2023-09-18T02:31:56;39.67;;;35.13;;
48849;SDS011;63210;53.370;6.770;2023-09-18T02:34:21;40.67;;;34.53;;
48849;SDS011;63210;53.370;6.770;2023-09-18T02:36:46;37.37;;;32.73;;
48849;SDS011;63210;53.370;6.770;2023-09-18T02:39:12;41.20;;;33.65;;
48849;SDS011;63210;53.370;6.770;2023-09-18T02:41:38;42.78;;;35.67;;
48849;SDS011;63210;53.370;6.770;2023-09-18T02:44:03;40.80;;;34.03;;
48849;SDS011;63210;53.370;6.770;2023-09-18T02:46:29;36.67;;;32.60;;
48849;SDS011;63210;53.370;6.770;2023-09-18T02:48:54;36.50;;;31.90;;
48849;SDS011;63210;53.370;6.770;2023-09-18T02:51:19;39.53;;;33.07;;
48849;SDS011;63210;53.370;6.770;2023-09-18T02:53:44;40.08;;;33.20;;
48849;SDS011;63210;53.370;6.770;2023-09-18T02:56:10;40.28;;;33.95;;
48849;SDS011;63210;53.370;6.770;2023-09-18T02:58:35;38.03;;;31.73;;
48849;SDS011;63210;53.370;6.770;2023-09-18T03:01:00;37.38;;;31.48;;
48849;SDS011;63210;53.370;6.770;2023-09-18T03:03:28;39.53;;;33.20;;
48849;SDS011;63210;53.370;6.770;2023-09-18T03:05:59;41.07;;;34.10;;
48849;SDS011;63210;53.370;6.770;2023-09-18T03:10:50;39.00;;;32.47;;
48849;SDS011;63210;53.370;6.770;2023-09-18T03:13:15;37.13;;;31.93;;
48849;SDS011;63210;53.370;6.770;2023-09-18T03:15:43;38.22;;;31.50;;
48849;SDS011;63210;53.370;6.770;2023-09-18T03:18:09;39.03;;;32.15;;
48849;SDS011;63210;53.370;6.770;2023-09-18T03:20:34;35.03;;;31.30;;
48849;SDS011;63210;53.370;6.770;2023-09-18T03:23:00;39.67;;;33.13;;
48849;SDS011;63210;53.370;6.770;2023-09-18T03:25:25;36.65;;;31.80;;
48849;SDS011;63210;53.370;6.770;2023-09-18T03:27:51;36.65;;;30.42;;
48849;SDS011;63210;53.370;6.770;2023-09-18T03:30:17;39.80;;;32.28;;
48849;SDS011;63210;53.370;6.770;2023-09-18T03:32:43;39.97;;;32.58;;
48849;SDS011;63210;53.370;6.770;2023-09-18T03:35:10;35.50;;;30.50;;
48849;SDS011;63210;53.370;6.770;2023-09-18T03:37:43;36.95;;;30.58;;
48849;SDS011;63210;53.370;6.770;2023-09-18T03:40:08;36.40;;;29.35;;
48849;SDS011;63210;53.370;6.770;2023-09-18T03:42:34;34.30;;;29.42;;
48849;SDS011;63210;53.370;6.770;2023-09-18T03:44:59;38.45;;;29.05;;
48849;SDS011;63210;53.370;6.770;2023-09-18T03:47:24;36.67;;;29.23;;
48849;SDS011;63210;53.370;6.770;2023-09-18T03:49:49;34.57;;;28.97;;
48849;SDS011;63210;53.370;6.770;2023-09-18T03:52:15;33.57;;;29.87;;
48849;SDS011;63210;53.370;6.770;2023-09-18T03:54:40;33.90;;;28.27;;
48849;SDS011;63210;53.370;6.770;2023-09-18T03:57:05;37.22;;;29.98;;
48849;SDS011;63210;53.370;6.770;2023-09-18T03:59:30;34.73;;;30.43;;
48849;SDS011;63210;53.370;6.770;2023-09-18T04:01:56;35.03;;;29.87;;
48849;SDS011;63210;53.370;6.770;2023-09-18T04:04:21;38.30;;;33.07;;
48849;SDS011;63210;53.370;6.770;2023-09-18T04:06:46;38.97;;;32.92;;
48849;SDS011;63210;53.370;6.770;2023-09-18T04:09:11;38.53;;;32.87;;
48849;SDS011;63210;53.370;6.770;2023-09-18T04:11:37;38.97;;;31.83;;
48849;SDS011;63210;53.370;6.770;2023-09-18T04:14:02;38.22;;;32.75;;
48849;SDS011;63210;53.370;6.770;2023-09-18T04:16:28;40.03;;;31.92;;
48849;SDS011;63210;53.370;6.770;2023-09-18T04:18:55;36.95;;;31.52;;
48849;SDS011;63210;53.370;6.770;2023-09-18T04:21:21;42.33;;;32.88;;
48849;SDS011;63210;53.370;6.770;2023-09-18T04:23:46;37.28;;;30.92;;
48849;SDS011;63210;53.370;6.770;2023-09-18T04:26:12;36.28;;;29.60;;
48849;SDS011;63210;53.370;6.770;2023-09-18T04:28:41;36.20;;;29.92;;
48849;SDS011;63210;53.370;6.770;2023-09-18T04:31:06;40.13;;;31.60;;
48849;SDS011;63210;53.370;6.770;2023-09-18T04:33:31;40.37;;;30.33;;
48849;SDS011;63210;53.370;6.770;2023-09-18T04:35:56;41.00;;;31.63;;
48849;SDS011;63210;53.370;6.770;2023-09-18T04:38:22;39.13;;;30.17;;
48849;SDS011;63210;53.370;6.770;2023-09-18T04:40:47;36.37;;;29.70;;
48849;SDS011;63210;53.370;6.770;2023-09-18T04:43:12;35.80;;;30.17;;
48849;SDS011;63210;53.370;6.770;2023-09-18T04:45:37;35.75;;;29.60;;
48849;SDS011;63210;53.370;6.770;2023-09-18T04:48:03;35.88;;;28.50;;
48849;SDS011;63210;53.370;6.770;2023-09-18T04:50:30;34.88;;;28.80;;
48849;SDS011;63210;53.370;6.770;2023-09-18T04:52:56;38.28;;;29.63;;
48849;SDS011;63210;53.370;6.770;2023-09-18T04:55:22;33.60;;;28.80;;
48849;SDS011;63210;53.370;6.770;2023-09-18T04:57:48;40.63;;;31.17;;
48849;SDS011;63210;53.370;6.770;2023-09-18T05:00:13;42.67;;;31.10;;
48849;SDS011;63210;53.370;6.770;2023-09-18T05:02:39;37.53;;;30.85;;
48849;SDS011;63210;53.370;6.770;2023-09-18T05:05:05;37.95;;;30.20;;
48849;SDS011;63210;53.370;6.770;2023-09-18T05:07:30;44.67;;;32.38;;
48849;SDS011;63210;53.370;6.770;2023-09-18T05:09:56;41.75;;;34.22;;
48849;SDS011;63210;53.370;6.770;2023-09-18T05:12:21;46.03;;;35.45;;
48849;SDS011;63210;53.370;6.770;2023-09-18T05:14:48;48.22;;;37.83;;
48849;SDS011;63210;53.370;6.770;2023-09-18T05:17:16;53.88;;;42.47;;
48849;SDS011;63210;53.370;6.770;2023-09-18T05:19:42;57.25;;;42.60;;
48849;SDS011;63210;53.370;6.770;2023-09-18T05:22:08;59.65;;;45.33;;
48849;SDS011;63210;53.370;6.770;2023-09-18T05:24:35;60.78;;;44.97;;
48849;SDS011;63210;53.370;6.770;2023-09-18T05:27:00;62.38;;;46.67;;
48849;SDS011;63210;53.370;6.770;2023-09-18T05:29:26;63.55;;;46.45;;
48849;SDS011;63210;53.370;6.770;2023-09-18T05:31:51;65.18;;;47.80;;
48849;SDS011;63210;53.370;6.770;2023-09-18T05:34:17;63.83;;;46.45;;
48849;SDS011;63210;53.370;6.770;2023-09-18T05:36:42;61.93;;;47.40;;
48849;SDS011;63210;53.370;6.770;2023-09-18T05:39:07;68.25;;;47.25;;
48849;SDS011;63210;53.370;6.770;2023-09-18T05:41:37;68.65;;;46.53;;
48849;SDS011;63210;53.370;6.770;2023-09-18T05:44:03;52.58;;;40.15;;
48849;SDS011;63210;53.370;6.770;2023-09-18T05:46:30;59.33;;;39.30;;
48849;SDS011;63210;53.370;6.770;2023-09-18T05:48:55;46.65;;;35.35;;
48849;SDS011;63210;53.370;6.770;2023-09-18T05:51:22;46.10;;;35.55;;
48849;SDS011;63210;53.370;6.770;2023-09-18T05:53:47;40.17;;;31.25;;
48849;SDS011;63210;53.370;6.770;2023-09-18T05:56:12;40.00;;;30.70;;
48849;SDS011;63210;53.370;6.770;2023-09-18T05:58:39;30.67;;;25.23;;
48849;SDS011;63210;53.370;6.770;2023-09-18T06:01:04;28.92;;;20.17;;
48849;SDS011;63210;53.370;6.770;2023-09-18T06:03:30;23.30;;;19.15;;
48849;SDS011;63210;53.370;6.770;2023-09-18T06:06:00;20.90;;;18.33;;
48849;SDS011;63210;53.370;6.770;2023-09-18T06:08:26;24.80;;;15.95;;
48849;SDS011;63210;53.370;6.770;2023-09-18T06:10:51;23.98;;;16.73;;
48849;SDS011;63210;53.370;6.770;2023-09-18T06:13:16;25.30;;;16.30;;
48849;SDS011;63210;53.370;6.770;2023-09-18T06:15:42;18.57;;;14.63;;
48849;SDS011;63210;53.370;6.770;2023-09-18T06:18:07;18.63;;;14.50;;
48849;SDS011;63210;53.370;6.770;2023-09-18T06:20:32;17.40;;;14.88;;
48849;SDS011;63210;53.370;6.770;2023-09-18T06:22:57;19.58;;;15.60;;
48849;SDS011;63210;53.370;6.770;2023-09-18T06:25:23;21.10;;;14.85;;
48849;SDS011;63210;53.370;6.770;2023-09-18T06:27:48;22.75;;;15.98;;
48849;SDS011;63210;53.370;6.770;2023-09-18T06:30:13;20.02;;;15.52;;
48849;SDS011;63210;53.370;6.770;2023-09-18T06:32:39;18.10;;;15.32;;
48849;SDS011;63210;53.370;6.770;2023-09-18T06:35:04;17.67;;;15.10;;
48849;SDS011;63210;53.370;6.770;2023-09-18T06:37:29;19.92;;;16.55;;
48849;SDS011;63210;53.370;6.770;2023-09-18T06:39:55;24.75;;;18.08;;
48849;SDS011;63210;53.370;6.770;2023-09-18T06:42:21;25.40;;;16.73;;
48849;SDS011;63210;53.370;6.770;2023-09-18T06:44:47;21.48;;;16.58;;
48849;SDS011;63210;53.370;6.770;2023-09-18T06:47:12;25.10;;;18.00;;
48849;SDS011;63210;53.370;6.770;2023-09-18T06:49:37;17.83;;;15.68;;
48849;SDS011;63210;53.370;6.770;2023-09-18T06:52:02;21.17;;;15.07;;
48849;SDS011;63210;53.370;6.770;2023-09-18T06:54:28;20.77;;;15.30;;
48849;SDS011;63210;53.370;6.770;2023-09-18T06:56:53;25.30;;;16.90;;
48849;SDS011;63210;53.370;6.770;2023-09-18T06:59:18;18.83;;;15.23;;
48849;SDS011;63210;53.370;6.770;2023-09-18T07:01:44;21.57;;;14.67;;
48849;SDS011;63210;53.370;6.770;2023-09-18T07:04:09;18.70;;;14.70;;
48849;SDS011;63210;53.370;6.770;2023-09-18T07:06:34;18.50;;;15.17;;
48849;SDS011;63210;53.370;6.770;2023-09-18T07:09:00;21.55;;;15.15;;
48849;SDS011;63210;53.370;6.770;2023-09-18T07:11:25;20.80;;;15.27;;
48849;SDS011;63210;53.370;6.770;2023-09-18T07:13:50;21.50;;;15.17;;
48849;SDS011;63210;53.370;6.770;2023-09-18T07:16:16;23.30;;;14.90;;
48849;SDS011;63210;53.370;6.770;2023-09-18T07:18:41;18.30;;;14.40;;
48849;SDS011;63210;53.370;6.770;2023-09-18T07:21:06;19.20;;;14.18;;
48849;SDS011;63210;53.370;6.770;2023-09-18T07:23:32;24.60;;;15.70;;
48849;SDS011;63210;53.370;6.770;2023-09-18T07:25:57;19.75;;;14.88;;
48849;SDS011;63210;53.370;6.770;2023-09-18T07:28:23;17.55;;;13.98;;
48849;SDS011;63210;53.370;6.770;2023-09-18T07:30:48;22.20;;;13.68;;
48849;SDS011;63210;53.370;6.770;2023-09-18T07:33:14;17.45;;;13.30;;
48849;SDS011;63210;53.370;6.770;2023-09-18T07:35:47;18.83;;;14.88;;
48849;SDS011;63210;53.370;6.770;2023-09-18T07:38:13;17.05;;;13.65;;
48849;SDS011;63210;53.370;6.770;2023-09-18T07:40:39;22.77;;;14.27;;
48849;SDS011;63210;53.370;6.770;2023-09-18T07:43:04;25.20;;;13.02;;
48849;SDS011;63210;53.370;6.770;2023-09-18T07:45:29;27.97;;;16.07;;
48849;SDS011;63210;53.370;6.770;2023-09-18T07:47:54;24.40;;;15.63;;
48849;SDS011;63210;53.370;6.770;2023-09-18T07:50:20;23.53;;;15.63;;
48849;SDS011;63210;53.370;6.770;2023-09-18T07:52:45;27.67;;;14.80;;
48849;SDS011;63210;53.370;6.770;2023-09-18T07:55:10;24.20;;;15.75;;
48849;SDS011;63210;53.370;6.770;2023-09-18T07:57:35;24.03;;;15.50;;
48849;SDS011;63210;53.370;6.770;2023-09-18T08:00:03;20.55;;;14.48;;
48849;SDS011;63210;53.370;6.770;2023-09-18T08:02:32;23.27;;;15.37;;
48849;SDS011;63210;53.370;6.770;2023-09-18T08:04:59;21.70;;;15.38;;
48849;SDS011;63210;53.370;6.770;2023-09-18T08:07:25;22.17;;;15.52;;
48849;SDS011;63210;53.370;6.770;2023-09-18T08:09:50;24.98;;;14.88;;
48849;SDS011;63210;53.370;6.770;2023-09-18T08:12:16;22.42;;;14.40;;
48849;SDS011;63210;53.370;6.770;2023-09-18T08:14:41;16.73;;;13.82;;
48849;SDS011;63210;53.370;6.770;2023-09-18T08:17:06;20.83;;;15.50;;
48849;SDS011;63210;53.370;6.770;2023-09-18T08:19:32;25.30;;;15.85;;
48849;SDS011;63210;53.370;6.770;2023-09-18T08:21:58;29.20;;;16.05;;
48849;SDS011;63210;53.370;6.770;2023-09-18T08:24:24;25.88;;;15.07;;
48849;SDS011;63210;53.370;6.770;2023-09-18T08:26:50;32.20;;;17.55;;
48849;SDS011;63210;53.370;6.770;2023-09-18T08:29:15;28.67;;;16.75;;
48849;SDS011;63210;53.370;6.770;2023-09-18T08:31:40;23.83;;;17.17;;
48849;SDS011;63210;53.370;6.770;2023-09-18T08:34:06;22.25;;;16.75;;
48849;SDS011;63210;53.370;6.770;2023-09-18T08:36:31;25.13;;;17.80;;
48849;SDS011;63210;53.370;6.770;2023-09-18T08:38:57;27.83;;;17.77;;
48849;SDS011;63210;53.370;6.770;2023-09-18T08:41:23;21.73;;;17.58;;
48849;SDS011;63210;53.370;6.770;2023-09-18T08:43:51;21.63;;;15.32;;
48849;SDS011;63210;53.370;6.770;2023-09-18T08:46:17;23.98;;;16.52;;
48849;SDS011;63210;53.370;6.770;2023-09-18T08:48:42;26.23;;;18.50;;
48849;SDS011;63210;53.370;6.770;2023-09-18T08:51:09;21.17;;;17.25;;
48849;SDS011;63210;53.370;6.770;2023-09-18T08:53:35;21.80;;;16.38;;
48849;SDS011;63210;53.370;6.770;2023-09-18T08:56:01;25.30;;;17.02;;
48849;SDS011;63210;53.370;6.770;2023-09-18T08:58:32;24.08;;;17.52;;
48849;SDS011;63210;53.370;6.770;2023-09-18T09:01:00;21.02;;;14.77;;
48849;SDS011;63210;53.370;6.770;2023-09-18T09:03:28;25.23;;;16.65;;
48849;SDS011;63210;53.370;6.770;2023-09-18T09:05:53;23.13;;;15.87;;
48849;SDS011;63210;53.370;6.770;2023-09-18T09:08:19;22.77;;;18.52;;
48849;SDS011;63210;53.370;6.770;2023-09-18T09:10:44;20.60;;;16.10;;
48849;SDS011;63210;53.370;6.770;2023-09-18T09:13:09;28.60;;;17.40;;
48849;SDS011;63210;53.370;6.770;2023-09-18T09:15:43;19.70;;;15.63;;
48849;SDS011;63210;53.370;6.770;2023-09-18T09:18:11;21.90;;;16.20;;
48849;SDS011;63210;53.370;6.770;2023-09-18T09:20:36;22.63;;;17.33;;
48849;SDS011;63210;53.370;6.770;2023-09-18T09:23:02;24.38;;;15.80;;
48849;SDS011;63210;53.370;6.770;2023-09-18T09:25:28;23.80;;;17.13;;
48849;SDS011;63210;53.370;6.770;2023-09-18T09:27:56;23.65;;;16.55;;
48849;SDS011;63210;53.370;6.770;2023-09-18T09:30:22;19.67;;;16.15;;
48849;SDS011;63210;53.370;6.770;2023-09-18T09:32:49;21.17;;;15.90;;
48849;SDS011;63210;53.370;6.770;2023-09-18T09:35:37;22.35;;;15.77;;
48849;SDS011;63210;53.370;6.770;2023-09-18T09:38:10;20.85;;;15.45;;
48849;SDS011;63210;53.370;6.770;2023-09-18T09:40:38;20.73;;;15.15;;
48849;SDS011;63210;53.370;6.770;2023-09-18T09:43:03;21.80;;;15.57;;
48849;SDS011;63210;53.370;6.770;2023-09-18T09:45:29;18.23;;;14.52;;
48849;SDS011;63210;53.370;6.770;2023-09-18T09:47:55;26.42;;;16.70;;
48849;SDS011;63210;53.370;6.770;2023-09-18T09:50:21;20.48;;;13.93;;
48849;SDS011;63210;53.370;6.770;2023-09-18T09:52:47;21.95;;;15.82;;
48849;SDS011;63210;53.370;6.770;2023-09-18T09:57:49;20.83;;;15.32;;
48849;SDS011;63210;53.370;6.770;2023-09-18T10:00:15;23.27;;;15.50;;
48849;SDS011;63210;53.370;6.770;2023-09-18T10:02:58;20.45;;;15.00;;
48849;SDS011;63210;53.370;6.770;2023-09-18T10:05:28;17.90;;;14.63;;
48849;SDS011;63210;53.370;6.770;2023-09-18T10:07:55;21.15;;;15.38;;
48849;SDS011;63210;53.370;6.770;2023-09-18T10:10:23;21.02;;;14.90;;
48849;SDS011;63210;53.370;6.770;2023-09-18T10:12:49;18.00;;;15.40;;
48849;SDS011;63210;53.370;6.770;2023-09-18T10:15:14;21.27;;;16.13;;
48849;SDS011;63210;53.370;6.770;2023-09-18T10:17:42;17.83;;;15.68;;
48849;SDS011;63210;53.370;6.770;2023-09-18T10:20:12;21.58;;;15.30;;
48849;SDS011;63210;53.370;6.770;2023-09-18T10:22:46;18.60;;;14.90;;
48849;SDS011;63210;53.370;6.770;2023-09-18T10:25:23;17.58;;;14.82;;
48849;SDS011;63210;53.370;6.770;2023-09-18T10:27:49;22.33;;;15.80;;
48849;SDS011;63210;53.370;6.770;2023-09-18T10:30:17;22.48;;;18.40;;
48849;SDS011;63210;53.370;6.770;2023-09-18T10:32:44;24.25;;;17.30;;
48849;SDS011;63210;53.370;6.770;2023-09-18T10:35:14;19.08;;;15.75;;
48849;SDS011;63210;53.370;6.770;2023-09-18T10:37:43;22.95;;;18.58;;
48849;SDS011;63210;53.370;6.770;2023-09-18T10:40:12;21.20;;;17.85;;
48849;SDS011;63210;53.370;6.770;2023-09-18T10:42:38;19.03;;;16.87;;
48849;SDS011;63210;53.370;6.770;2023-09-18T10:45:04;19.67;;;17.17;;
48849;SDS011;63210;53.370;6.770;2023-09-18T10:47:32;23.13;;;19.17;;
48849;SDS011;63210;53.370;6.770;2023-09-18T10:49:57;21.42;;;18.75;;
48849;SDS011;63210;53.370;6.770;2023-09-18T10:52:23;20.38;;;17.75;;
48849;SDS011;63210;53.370;6.770;2023-09-18T10:54:48;27.50;;;19.33;;
48849;SDS011;63210;53.370;6.770;2023-09-18T10:57:13;22.05;;;19.85;;
48849;SDS011;63210;53.370;6.770;2023-09-18T10:59:45;25.27;;;19.13;;
48849;SDS011;63210;53.370;6.770;2023-09-18T11:02:13;21.02;;;16.30;;
48849;SDS011;63210;53.370;6.770;2023-09-18T11:04:40;21.95;;;16.17;;
48849;SDS011;63210;53.370;6.770;2023-09-18T11:07:06;21.50;;;17.52;;
48849;SDS011;63210;53.370;6.770;2023-09-18T11:09:32;21.05;;;16.98;;
48849;SDS011;63210;53.370;6.770;2023-09-18T11:12:05;16.70;;;14.80;;
48849;SDS011;63210;53.370;6.770;2023-09-18T11:15:03;14.32;;;12.75;;
48849;SDS011;63210;53.370;6.770;2023-09-18T11:17:35;16.02;;;12.65;;
48849;SDS011;63210;53.370;6.770;2023-09-18T11:20:04;14.30;;;10.38;;
48849;SDS011;63210;53.370;6.770;2023-09-18T11:22:40;14.55;;;12.10;;
48849;SDS011;63210;53.370;6.770;2023-09-18T11:27:57;14.07;;;11.85;;
48849;SDS011;63210;53.370;6.770;2023-09-18T11:30:21;10.45;;;9.45;;
48849;SDS011;63210;53.370;6.770;2023-09-18T11:32:47;10.10;;;8.75;;
48849;SDS011;63210;53.370;6.770;2023-09-18T11:35:13;10.88;;;8.07;;
48849;SDS011;63210;53.370;6.770;2023-09-18T11:37:42;12.07;;;8.52;;
48849;SDS011;63210;53.370;6.770;2023-09-18T11:40:18;13.97;;;7.00;;
48849;SDS011;63210;53.370;6.770;2023-09-18T11:43:37;15.32;;;10.13;;
48849;SDS011;63210;53.370;6.770;2023-09-18T11:45:41;8.77;;;6.53;;
48849;SDS011;63210;53.370;6.770;2023-09-18T11:48:07;7.50;;;6.45;;
48849;SDS011;63210;53.370;6.770;2023-09-18T11:50:38;8.90;;;6.55;;
48849;SDS011;63210;53.370;6.770;2023-09-18T11:55:34;7.53;;;6.05;;
48849;SDS011;63210;53.370;6.770;2023-09-18T11:57:59;6.80;;;6.10;;
48849;SDS011;63210;53.370;6.770;2023-09-18T12:00:26;6.80;;;6.10;;
48849;SDS011;63210;53.370;6.770;2023-09-18T12:03:14;6.68;;;5.95;;
48849;SDS011;63210;53.370;6.770;2023-09-18T12:05:43;7.45;;;5.80;;
48849;SDS011;63210;53.370;6.770;2023-09-18T12:08:08;10.32;;;6.65;;
48849;SDS011;63210;53.370;6.770;2023-09-18T12:10:36;7.80;;;5.88;;
48849;SDS011;63210;53.370;6.770;2023-09-18T12:13:03;6.15;;;5.25;;
48849;SDS011;63210;53.370;6.770;2023-09-18T12:15:31;7.53;;;5.22;;
48849;SDS011;63210;53.370;6.770;2023-09-18T12:18:04;9.60;;;5.28;;
48849;SDS011;63210;53.370;6.770;2023-09-18T12:20:30;5.78;;;5.18;;
48849;SDS011;63210;53.370;6.770;2023-09-18T12:22:56;7.72;;;5.03;;
48849;SDS011;63210;53.370;6.770;2023-09-18T12:25:22;8.70;;;5.57;;
48849;SDS011;63210;53.370;6.770;2023-09-18T12:27:54;8.23;;;5.60;;
48849;SDS011;63210;53.370;6.770;2023-09-18T12:30:20;12.48;;;5.78;;
48849;SDS011;63210;53.370;6.770;2023-09-18T12:32:47;10.10;;;5.50;;
48849;SDS011;63210;53.370;6.770;2023-09-18T12:35:16;6.35;;;5.50;;
48849;SDS011;63210;53.370;6.770;2023-09-18T12:40:27;8.85;;;5.30;;
48849;SDS011;63210;53.370;6.770;2023-09-18T12:42:54;9.48;;;5.43;;
48849;SDS011;63210;53.370;6.770;2023-09-18T12:45:20;7.07;;;4.63;;
48849;SDS011;63210;53.370;6.770;2023-09-18T12:47:45;6.05;;;5.30;;
48849;SDS011;63210;53.370;6.770;2023-09-18T12:50:14;5.75;;;4.10;;
48849;SDS011;63210;53.370;6.770;2023-09-18T12:52:39;8.00;;;4.80;;
48849;SDS011;63210;53.370;6.770;2023-09-18T12:55:05;5.55;;;4.18;;
48849;SDS011;63210;53.370;6.770;2023-09-18T12:57:32;7.15;;;4.60;;
48849;SDS011;63210;53.370;6.770;2023-09-18T12:59:57;6.35;;;4.43;;
48849;SDS011;63210;53.370;6.770;2023-09-18T13:02:22;6.35;;;4.80;;
48849;SDS011;63210;53.370;6.770;2023-09-18T13:04:51;8.77;;;4.95;;
48849;SDS011;63210;53.370;6.770;2023-09-18T13:07:17;8.18;;;4.70;;
48849;SDS011;63210;53.370;6.770;2023-09-18T13:09:42;6.88;;;4.53;;
48849;SDS011;63210;53.370;6.770;2023-09-18T13:12:08;5.13;;;4.60;;
48849;SDS011;63210;53.370;6.770;2023-09-18T13:17:17;5.78;;;5.28;;
48849;SDS011;63210;53.370;6.770;2023-09-18T13:19:43;7.78;;;5.43;;
48849;SDS011;63210;53.370;6.770;2023-09-18T13:22:08;7.07;;;5.80;;
48849;SDS011;63210;53.370;6.770;2023-09-18T13:24:33;8.93;;;5.72;;
48849;SDS011;63210;53.370;6.770;2023-09-18T13:26:59;8.50;;;6.10;;
48849;SDS011;63210;53.370;6.770;2023-09-18T13:29:25;7.85;;;6.57;;
48849;SDS011;63210;53.370;6.770;2023-09-18T13:31:51;7.95;;;5.78;;
48849;SDS011;63210;53.370;6.770;2023-09-18T13:34:16;5.55;;;4.60;;
48849;SDS011;63210;53.370;6.770;2023-09-18T13:36:46;5.47;;;3.83;;
48849;SDS011;63210;53.370;6.770;2023-09-18T13:39:12;7.15;;;3.60;;
48849;SDS011;63210;53.370;6.770;2023-09-18T13:41:37;5.78;;;4.00;;
48849;SDS011;63210;53.370;6.770;2023-09-18T13:44:03;6.47;;;4.22;;
48849;SDS011;63210;53.370;6.770;2023-09-18T13:46:28;4.55;;;4.13;;
48849;SDS011;63210;53.370;6.770;2023-09-18T13:48:53;6.63;;;4.35;;
48849;SDS011;63210;53.370;6.770;2023-09-18T13:51:19;6.97;;;4.20;;
48849;SDS011;63210;53.370;6.770;2023-09-18T13:53:44;8.55;;;3.88;;
48849;SDS011;63210;53.370;6.770;2023-09-18T13:56:09;4.97;;;3.78;;
48849;SDS011;63210;53.370;6.770;2023-09-18T13:58:35;7.93;;;3.73;;
48849;SDS011;63210;53.370;6.770;2023-09-18T14:01:06;3.95;;;3.58;;
48849;SDS011;63210;53.370;6.770;2023-09-18T14:03:33;5.28;;;4.10;;
48849;SDS011;63210;53.370;6.770;2023-09-18T14:05:59;5.32;;;3.70;;
48849;SDS011;63210;53.370;6.770;2023-09-18T14:08:24;6.25;;;3.70;;
48849;SDS011;63210;53.370;6.770;2023-09-18T14:10:49;6.10;;;3.90;;
48849;SDS011;63210;53.370;6.770;2023-09-18T14:15:49;4.78;;;3.70;;
48849;SDS011;63210;53.370;6.770;2023-09-18T14:18:14;6.63;;;4.20;;
48849;SDS011;63210;53.370;6.770;2023-09-18T14:20:39;5.50;;;4.30;;
48849;SDS011;63210;53.370;6.770;2023-09-18T14:23:06;6.97;;;3.72;;
48849;SDS011;63210;53.370;6.770;2023-09-18T14:27:59;4.20;;;3.80;;
48849;SDS011;63210;53.370;6.770;2023-09-18T14:30:24;6.28;;;4.40;;
48849;SDS011;63210;53.370;6.770;2023-09-18T14:32:55;5.88;;;3.72;;
48849;SDS011;63210;53.370;6.770;2023-09-18T14:35:20;5.20;;;4.23;;
48849;SDS011;63210;53.370;6.770;2023-09-18T14:37:45;7.65;;;4.30;;
48849;SDS011;63210;53.370;6.770;2023-09-18T14:40:11;4.38;;;3.97;;
48849;SDS011;63210;53.370;6.770;2023-09-18T14:42:37;5.75;;;3.90;;
48849;SDS011;63210;53.370;6.770;2023-09-18T14:45:02;8.77;;;4.32;;
48849;SDS011;63210;53.370;6.770;2023-09-18T14:47:27;6.78;;;4.30;;